createdAt,value
2023-01-20T00:01:40.445Z,100470.03
2023-01-20T00:06:42.485Z,100473.50
2023-01-20T00:11:44.732Z,100467.22
2023-01-20T00:16:48.197Z,100469.00
2023-01-20T00:21:50.205Z,100477.59
2023-01-20T00:26:52.454Z,100479.47
2023-01-20T00:31:55.667Z,100487.44
2023-01-20T00:36:58.015Z,100482.13
2023-01-20T00:42:00.415Z,100489.22
2023-01-20T00:47:03.799Z,100494.44
2023-01-20T00:52:06.348Z,100496.13
2023-01-20T00:57:08.800Z,100492.59
2023-01-20T01:02:12.569Z,100502.34
2023-01-20T01:07:14.731Z,100516.44
2023-01-20T01:12:16.770Z,100520.75
2023-01-20T01:17:20.270Z,100530.25
2023-01-20T01:22:22.670Z,100537.28
2023-01-20T01:27:24.704Z,100521.28
2023-01-20T01:32:28.423Z,100552.94
2023-01-20T01:37:30.785Z,100555.31
2023-01-20T01:42:33.060Z,100555.31
2023-01-20T01:47:37.516Z,100543.22
2023-01-20T01:52:42.887Z,100557.03
2023-01-20T01:57:45.925Z,100564.00
2023-01-20T02:02:49.730Z,100578.78
2023-01-20T02:07:53.016Z,100584.69
2023-01-20T02:12:55.313Z,100582.03
2023-01-20T02:18:12.932Z,100589.03
2023-01-20T02:23:30.505Z,100596.81
2023-01-20T02:29:17.028Z,100600.16
2023-01-20T02:34:28.595Z,100614.16
2023-01-20T02:39:40.245Z,100622.97
2023-01-20T02:44:49.829Z,100629.84
2023-01-20T02:50:14.560Z,100634.97
2023-01-20T02:55:22.515Z,100643.25
2023-01-20T03:00:29.237Z,100636.00
2023-01-20T03:05:37.316Z,100649.19
2023-01-20T03:10:41.783Z,100649.84
2023-01-20T03:15:54.138Z,100655.47
2023-01-20T03:20:58.667Z,100659.88
2023-01-20T03:26:02.701Z,100661.59
2023-01-20T03:31:11.958Z,100673.59
2023-01-20T03:36:16.752Z,100672.97
2023-01-20T03:41:35.770Z,100684.09
2023-01-20T03:46:43.460Z,100671.63
2023-01-20T03:51:57.128Z,100682.56
2023-01-20T03:57:04.547Z,100697.16
2023-01-20T04:02:08.940Z,100697.06
2023-01-20T04:07:17.689Z,100707.75
2023-01-20T04:12:19.920Z,100707.44
2023-01-20T04:17:26.453Z,100703.31
2023-01-20T04:22:35.018Z,100714.72
2023-01-20T04:27:37.181Z,100721.31
2023-01-20T04:32:39.682Z,100733.38
2023-01-20T04:37:43.235Z,100729.06
2023-01-20T04:42:45.531Z,100743.97
2023-01-20T04:47:47.488Z,100743.91
2023-01-20T04:52:55.198Z,100745.94
2023-01-20T04:57:57.329Z,100746.16
2023-01-20T05:02:59.466Z,100771.38
2023-01-20T05:08:02.677Z,100771.13
2023-01-20T05:13:04.681Z,100772.69
2023-01-20T05:18:06.782Z,100778.34
2023-01-20T05:23:10.398Z,100783.00
2023-01-20T05:28:12.613Z,100784.31
2023-01-20T05:33:14.796Z,100803.31
2023-01-20T05:38:18.369Z,100808.09
2023-01-20T05:43:20.295Z,100814.84
2023-01-20T05:48:22.359Z,100813.91
2023-01-20T05:53:26.094Z,100821.91
2023-01-20T05:58:28.563Z,100827.69
2023-01-20T06:03:30.999Z,100832.13
2023-01-20T06:08:35.008Z,100840.81
2023-01-20T06:13:37.174Z,100846.84
2023-01-20T06:18:39.295Z,100849.88
2023-01-20T06:23:42.731Z,100865.66
2023-01-20T06:28:44.898Z,100863.03
2023-01-20T06:33:47.203Z,100878.59
2023-01-20T06:38:50.832Z,100886.81
2023-01-20T06:43:52.782Z,100906.78
2023-01-20T06:48:54.844Z,100918.03
2023-01-20T06:53:58.577Z,100925.59
2023-01-20T06:59:00.813Z,100916.88
2023-01-20T07:04:03.570Z,100924.03
2023-01-20T07:09:08.944Z,100924.66
2023-01-20T07:14:11.088Z,100938.00
2023-01-20T07:19:13.965Z,100944.22
2023-01-20T07:24:23.605Z,100956.94
2023-01-20T07:29:26.921Z,100963.31
2023-01-20T07:34:28.972Z,100967.84
2023-01-20T07:39:32.560Z,100984.63
2023-01-20T07:44:34.955Z,100985.59
2023-01-20T07:49:37.305Z,100986.31
2023-01-20T07:54:40.845Z,100994.13
2023-01-20T07:59:42.944Z,100995.19
2023-01-20T08:05:08.729Z,101006.53
2023-01-20T08:10:12.335Z,101010.06
2023-01-20T08:15:14.796Z,101016.41
2023-01-20T08:20:19.524Z,101017.28
2023-01-20T08:25:23.049Z,101015.00
2023-01-20T08:30:25.620Z,101027.97
2023-01-20T08:35:27.795Z,101030.09
2023-01-20T08:40:33.290Z,101038.91
2023-01-20T08:45:36.570Z,101048.69
2023-01-20T08:50:38.416Z,101053.78
2023-01-20T08:55:41.936Z,101054.38
2023-01-20T09:00:44.136Z,101063.19
2023-01-20T09:05:46.679Z,101073.13
2023-01-20T09:10:50.144Z,101073.34
2023-01-20T09:15:52.809Z,101092.59
2023-01-20T09:20:54.869Z,101095.84
2023-01-20T09:26:01.566Z,101097.59
2023-01-20T09:31:06.795Z,101114.84
2023-01-20T09:36:31.557Z,101118.88
2023-01-20T09:41:37.572Z,101125.19
2023-01-20T09:46:51.976Z,101138.94
2023-01-20T09:52:02.570Z,101138.97
2023-01-20T09:57:10.641Z,101139.13
2023-01-20T10:02:19.746Z,101146.38
2023-01-20T10:07:34.587Z,101150.31
2023-01-20T10:12:44.204Z,101148.34
2023-01-20T10:17:52.340Z,101146.38
2023-01-20T10:23:01.586Z,101152.69
2023-01-20T10:28:11.635Z,101161.75
2023-01-20T10:33:15.283Z,101160.59
2023-01-20T10:38:26.835Z,101156.25
2023-01-20T10:43:31.183Z,101155.28
2023-01-20T10:54:59.879Z,101176.66
2023-01-20T11:00:06.423Z,101180.72
2023-01-20T11:05:35.560Z,101177.88
2023-01-20T11:10:37.700Z,101174.28
2023-01-20T11:15:44.574Z,101179.84
2023-01-20T11:20:48.333Z,101176.44
2023-01-20T11:25:56.185Z,101185.03
2023-01-20T11:30:59.667Z,101186.13
2023-01-20T11:36:03.911Z,101190.63
2023-01-20T11:41:06.427Z,101185.16
2023-01-20T11:46:34.621Z,101184.13
2023-01-20T11:51:45.599Z,101185.44
2023-01-20T11:56:52.364Z,101190.06
2023-01-20T12:01:58.960Z,101183.69
2023-01-20T12:07:05.203Z,101189.59
2023-01-20T12:12:15.045Z,101192.59
2023-01-20T12:17:33.266Z,101203.88
2023-01-20T12:22:44.989Z,101219.78
2023-01-20T12:27:53.964Z,101223.28
2023-01-20T12:32:58.187Z,101220.97
2023-01-20T12:38:07.135Z,101240.78
2023-01-20T12:43:50.503Z,101244.19
2023-01-20T12:49:11.174Z,101249.88
2023-01-20T12:54:54.384Z,101260.66
2023-01-20T13:00:11.664Z,101258.88
2023-01-20T13:06:07.551Z,101274.22
2023-01-20T13:11:20.971Z,101289.75
2023-01-20T13:16:32.660Z,101286.41
2023-01-20T13:21:34.936Z,101284.28
2023-01-20T13:26:38.275Z,101296.69
2023-01-20T13:31:44.901Z,101288.13
2023-01-20T13:37:21.962Z,101305.72
2023-01-20T13:42:51.946Z,101304.16
2023-01-20T13:48:10.364Z,101309.78
2023-01-20T13:53:26.290Z,101314.03
2023-01-20T13:58:31.525Z,101315.38
2023-01-20T14:03:35.450Z,101321.97
2023-01-20T14:08:39.440Z,101327.06
2023-01-20T14:13:52.571Z,101332.25
2023-01-20T14:18:57.808Z,101333.66
2023-01-20T14:23:59.861Z,101345.81
2023-01-20T14:34:45.249Z,101349.19
2023-01-20T14:39:49.077Z,101354.75
2023-01-20T14:44:55.980Z,101360.59
2023-01-20T14:49:58.471Z,101366.38
2023-01-20T14:55:00.584Z,101377.16
2023-01-20T15:00:14.295Z,101382.91
2023-01-20T15:05:25.517Z,101393.81
2023-01-20T15:10:27.439Z,101405.63
2023-01-20T15:15:32.292Z,101414.94
2023-01-20T15:20:35.685Z,101419.81
2023-01-20T15:25:37.866Z,101419.78
2023-01-20T15:30:41.487Z,101441.84
2023-01-20T15:35:43.747Z,101438.38
2023-01-20T15:40:45.924Z,101448.91
2023-01-20T15:45:49.175Z,101462.03
2023-01-20T15:50:51.428Z,101470.69
2023-01-20T15:55:53.687Z,101480.13
2023-01-20T16:00:58.857Z,101485.75
2023-01-20T16:06:00.799Z,101498.41
2023-01-20T16:11:18.505Z,101509.09
2023-01-20T16:16:25.454Z,101502.88
2023-01-20T16:21:28.579Z,101519.88
2023-01-20T16:26:34.110Z,101527.34
2023-01-20T16:31:37.731Z,101535.59
2023-01-20T16:36:39.913Z,101544.84
2023-01-20T16:41:47.533Z,101545.28
2023-01-20T16:46:51.084Z,101554.47
2023-01-20T16:51:53.105Z,101559.22
2023-01-20T16:56:55.189Z,101562.69
2023-01-20T17:01:58.573Z,101575.34
2023-01-20T17:07:00.330Z,101584.63
2023-01-20T17:12:02.392Z,101596.19
2023-01-20T17:17:05.534Z,101592.44
2023-01-20T17:22:23.312Z,101595.59
2023-01-20T17:27:25.326Z,101608.25
2023-01-20T17:32:28.956Z,101618.19
2023-01-20T17:37:31.206Z,101622.31
2023-01-20T17:42:32.874Z,101639.56
2023-01-20T17:47:36.424Z,101633.94
2023-01-20T17:52:38.565Z,101641.28
2023-01-20T17:57:40.736Z,101644.75
2023-01-20T18:08:28.971Z,101655.41
2023-01-20T18:13:30.861Z,101657.66
2023-01-20T18:18:57.916Z,101657.75
2023-01-20T18:24:00.846Z,101670.22
2023-01-20T18:29:05.144Z,101671.63
2023-01-20T18:34:11.293Z,101675.13
2023-01-20T18:39:16.190Z,101692.31
2023-01-20T18:44:18.952Z,101700.00
2023-01-20T18:49:22.302Z,101699.78
2023-01-20T18:54:24.051Z,101707.88
2023-01-20T18:59:26.513Z,101716.91
2023-01-20T19:04:29.950Z,101719.56
2023-01-20T19:09:31.779Z,101718.06
2023-01-20T19:14:34.355Z,101731.56
2023-01-20T19:19:37.841Z,101732.00
2023-01-20T19:24:39.631Z,101734.81
2023-01-20T19:29:41.833Z,101739.66
2023-01-20T19:34:45.182Z,101750.69
2023-01-20T19:39:47.227Z,101754.94
2023-01-20T19:44:49.085Z,101760.69
2023-01-20T19:49:52.616Z,101765.69
2023-01-20T19:54:54.812Z,101772.91
2023-01-20T19:59:57.362Z,101782.22
2023-01-20T20:05:28.938Z,101780.66
2023-01-20T20:10:42.269Z,101790.94
2023-01-20T20:15:47.037Z,101798.72
2023-01-20T20:20:51.128Z,101806.56
2023-01-20T20:25:55.450Z,101808.25
2023-01-20T20:31:04.293Z,101803.41
2023-01-20T20:36:09.537Z,101809.31
2023-01-20T20:41:11.697Z,101809.75
2023-01-20T20:46:15.820Z,101817.34
2023-01-20T20:51:19.623Z,101830.25
2023-01-20T20:56:23.014Z,101834.34
2023-01-20T21:01:25.248Z,101845.09
2023-01-20T21:06:29.635Z,101845.84
2023-01-20T21:11:32.576Z,101856.50
2023-01-20T21:16:35.231Z,101863.34
2023-01-20T21:21:39.043Z,101857.31
2023-01-20T21:26:41.399Z,101859.66
2023-01-20T21:31:43.540Z,101859.41
2023-01-20T21:36:46.756Z,101854.03
2023-01-20T21:41:49.075Z,101872.34
2023-01-20T21:46:51.313Z,101880.34
2023-01-20T21:51:55.315Z,101891.59
2023-01-20T21:56:57.861Z,101901.72
2023-01-20T22:01:59.943Z,101900.41
2023-01-20T22:07:03.151Z,101899.50
2023-01-20T22:12:06.091Z,101911.88
2023-01-20T22:17:09.158Z,101908.63
2023-01-20T22:22:15.079Z,101907.25
2023-01-20T22:27:17.444Z,101913.69
2023-01-20T22:32:19.687Z,101916.19
2023-01-20T22:37:22.906Z,101932.63
2023-01-20T22:42:25.011Z,101939.69
2023-01-20T22:47:27.157Z,101947.69
2023-01-20T22:52:30.655Z,101950.28
2023-01-20T22:57:33.067Z,101966.63
2023-01-20T23:02:35.308Z,101964.47
2023-01-20T23:07:38.790Z,101968.66
2023-01-20T23:12:40.722Z,101967.78
2023-01-20T23:17:42.837Z,101975.19
2023-01-20T23:22:46.083Z,101981.31
2023-01-20T23:27:47.784Z,101984.41
2023-01-20T23:32:49.800Z,101981.66
2023-01-20T23:37:53.460Z,101983.50
2023-01-20T23:42:55.568Z,101991.66
2023-01-20T23:47:57.319Z,101984.41
2023-01-20T23:53:00.441Z,101987.28
2023-01-20T23:58:03.586Z,101989.78
